Michipicoten — CFG8060 — position and weather

sailwx.info

Track history (hours):
 
Tides and Currents Weather Stations Pressure Air Temp Water Temp Dewpoint Dewpoint Depression Visibility Wind Speed Wind Dir Waves Ship Positions

Michipicoten

Last reported at 2014-Jul-24 12:24 UTC. Time now 2014-Jul-24 13:04 UTC.
Position N 46°31' W 084°23'.

Length 212 m.

Type: Ship. MMSI: 316002501.

Date/timePositionNaut miles runAvg speedWind from/ knotsBaromVisibWave heightAir tempDewpointWater temp
2014-Jul-24 12:24N 46°31' W 084°23'0 0.0
2014-Jul-24 11:32N 46°31' W 084°23'0 0.0
2014-Jul-24 10:09N 46°31' W 084°23'0 0.0
2014-Jul-24 08:33N 46°31' W 084°23'6 2.8
2014-Jul-24 06:33N 46°28' W 084°29'  
2014-Jul-21 19:04N 46°27' W 084°32'7 2.0
2014-Jul-21 15:27N 46°31' W 084°23'0 0.0
2014-Jul-21 14:28N 46°31' W 084°23'5 0.2
2014-Jul-20 13:33N 46°28' W 084°28'4 4.5
2014-Jul-20 12:33N 46°31' W 084°23'0 0.0
2014-Jul-20 11:33N 46°31' W 084°23'0 0.0
2014-Jul-20 10:33N 46°31' W 084°23'0 0.0
2014-Jul-20 09:33N 46°31' W 084°23'0 0.0
2014-Jul-20 08:33N 46°31' W 084°23'1 0.7
2014-Jul-20 07:32N 46°30' W 084°23'8 8.3
2014-Jul-20 06:33N 46°28' W 084°35'1313.2
2014-Jul-20 05:33N 46°39' W 084°47'1312.9
2014-Jul-20 04:31N 46°48' W 085°00'31 1.9
2014-Jul-19 12:15N 46°46' W 085°46'1014.1
2014-Jul-19 11:32N 46°48' W 085°31'4012.7
2014-Jul-19 08:23N 46°31' W 084°38'810.1
2014-Jul-19 07:34N 46°29' W 084°27'14 4.4
2014-Jul-19 04:21N 46°20' W 084°11'6 7.2
2014-Jul-19 03:32N 46°15' W 084°06'10 9.6
2014-Jul-19 02:32N 46°06' W 084°01'1111.1
2014-Jul-19 01:33N 45°57' W 083°54'1413.9
2014-Jul-19 00:33N 45°51' W 084°12'1414.1
2014-Jul-18 23:33N 45°51' W 084°33'1413.8
2014-Jul-18 22:34N 45°49' W 084°52'1211.7
2014-Jul-18 21:33N 45°47' W 085°09'1413.8
2014-Jul-18 20:33N 45°35' W 085°20'1414.2
2014-Jul-18 19:33N 45°24' W 085°32'1414.4
2014-Jul-18 18:33N 45°12' W 085°44'1514.6
2014-Jul-18 17:33N 45°01' W 085°57'1414.1
2014-Jul-18 16:33N 44°53' W 086°13'1514.6
2014-Jul-18 15:31N 44°39' W 086°23'15 0.4
2014-Jul-17 01:14N 44°28' W 086°36'913.4
2014-Jul-17 00:33N 44°36' W 086°33'2713.4
2014-Jul-16 22:33N 45°02' W 086°22'1413.6
2014-Jul-16 21:33N 45°15' W 086°17'1413.7
2014-Jul-16 20:33N 45°28' W 086°12'1313.5
2014-Jul-16 19:34N 45°41' W 086°06'1413.7
2014-Jul-16 18:34N 45°48' W 085°49'1313.3
2014-Jul-16 17:33N 45°53' W 085°31'1313.4
2014-Jul-16 16:34N 45°52' W 085°12'1313.5
2014-Jul-16 15:34N 45°50' W 084°53'1313.0
2014-Jul-16 14:34N 45°51' W 084°35'1413.5
2014-Jul-16 13:34N 45°53' W 084°15'1413.6
2014-Jul-16 12:33N 45°56' W 083°56'9 0.4
2014-Jul-15 15:11N 46°03' W 083°50'712.0
2014-Jul-15 14:33N 46°04' W 084°01'1110.9
2014-Jul-15 13:33N 46°13' W 084°10'8 7.6
2014-Jul-15 12:33N 46°21' W 084°13'12 4.1
2014-Jul-15 09:34N 46°31' W 084°23'0 0.3
2014-Jul-15 08:30N 46°31' W 084°23'0 0.0
2014-Jul-15 07:34N 46°31' W 084°23'0 0.0
2014-Jul-15 06:34N 46°31' W 084°23'0 0.0
2014-Jul-15 05:34N 46°31' W 084°23'0 0.0
2014-Jul-15 04:30N 46°31' W 084°23'0 0.0
2014-Jul-15 03:24N 46°31' W 084°23'0 0.0
2014-Jul-15 02:34N 46°31' W 084°23'0 0.0
2014-Jul-15 01:28N 46°31' W 084°23'0 0.0
2014-Jul-15 00:33N 46°31' W 084°23'  
Track history (hours):
 
Tides and Currents Weather Stations Pressure Air Temp Water Temp Dewpoint Dewpoint Depression Visibility Wind Speed Wind Dir Waves Ship Positions

Michipicoten

Last reported at 2014-Jul-24 12:24 UTC. Time now 2014-Jul-24 13:04 UTC.
Position N 46°31' W 084°23'.

Length 212 m.

Type: Ship. MMSI: 316002501.

Date/timePositionNaut miles runAvg speedWind from/ knotsBaromVisibWave heightAir tempDewpointWater temp
2014-Jul-24 12:24N 46°31' W 084°23'0 0.0
2014-Jul-24 11:32N 46°31' W 084°23'0 0.0
2014-Jul-24 10:09N 46°31' W 084°23'0 0.0
2014-Jul-24 08:33N 46°31' W 084°23'6 2.8
2014-Jul-24 06:33N 46°28' W 084°29'  
2014-Jul-21 19:04N 46°27' W 084°32'7 2.0
2014-Jul-21 15:27N 46°31' W 084°23'0 0.0
2014-Jul-21 14:28N 46°31' W 084°23'5 0.2
2014-Jul-20 13:33N 46°28' W 084°28'4 4.5
2014-Jul-20 12:33N 46°31' W 084°23'0 0.0
2014-Jul-20 11:33N 46°31' W 084°23'0 0.0
2014-Jul-20 10:33N 46°31' W 084°23'0 0.0
2014-Jul-20 09:33N 46°31' W 084°23'0 0.0
2014-Jul-20 08:33N 46°31' W 084°23'1 0.7
2014-Jul-20 07:32N 46°30' W 084°23'8 8.3
2014-Jul-20 06:33N 46°28' W 084°35'1313.2
2014-Jul-20 05:33N 46°39' W 084°47'1312.9
2014-Jul-20 04:31N 46°48' W 085°00'31 1.9
2014-Jul-19 12:15N 46°46' W 085°46'1014.1
2014-Jul-19 11:32N 46°48' W 085°31'4012.7
2014-Jul-19 08:23N 46°31' W 084°38'810.1
2014-Jul-19 07:34N 46°29' W 084°27'14 4.4
2014-Jul-19 04:21N 46°20' W 084°11'6 7.2
2014-Jul-19 03:32N 46°15' W 084°06'10 9.6
2014-Jul-19 02:32N 46°06' W 084°01'1111.1
2014-Jul-19 01:33N 45°57' W 083°54'1413.9
2014-Jul-19 00:33N 45°51' W 084°12'1414.1
2014-Jul-18 23:33N 45°51' W 084°33'1413.8
2014-Jul-18 22:34N 45°49' W 084°52'1211.7
2014-Jul-18 21:33N 45°47' W 085°09'1413.8
2014-Jul-18 20:33N 45°35' W 085°20'1414.2
2014-Jul-18 19:33N 45°24' W 085°32'1414.4
2014-Jul-18 18:33N 45°12' W 085°44'1514.6
2014-Jul-18 17:33N 45°01' W 085°57'1414.1
2014-Jul-18 16:33N 44°53' W 086°13'1514.6
2014-Jul-18 15:31N 44°39' W 086°23'15 0.4
2014-Jul-17 01:14N 44°28' W 086°36'913.4
2014-Jul-17 00:33N 44°36' W 086°33'2713.4
2014-Jul-16 22:33N 45°02' W 086°22'1413.6
2014-Jul-16 21:33N 45°15' W 086°17'1413.7
2014-Jul-16 20:33N 45°28' W 086°12'1313.5
2014-Jul-16 19:34N 45°41' W 086°06'1413.7
2014-Jul-16 18:34N 45°48' W 085°49'1313.3
2014-Jul-16 17:33N 45°53' W 085°31'1313.4
2014-Jul-16 16:34N 45°52' W 085°12'1313.5
2014-Jul-16 15:34N 45°50' W 084°53'1313.0
2014-Jul-16 14:34N 45°51' W 084°35'1413.5
2014-Jul-16 13:34N 45°53' W 084°15'1413.6
2014-Jul-16 12:33N 45°56' W 083°56'9 0.4
2014-Jul-15 15:11N 46°03' W 083°50'712.0
2014-Jul-15 14:33N 46°04' W 084°01'1110.9
2014-Jul-15 13:33N 46°13' W 084°10'8 7.6
2014-Jul-15 12:33N 46°21' W 084°13'12 4.1
2014-Jul-15 09:34N 46°31' W 084°23'0 0.3
2014-Jul-15 08:30N 46°31' W 084°23'0 0.0
2014-Jul-15 07:34N 46°31' W 084°23'0 0.0
2014-Jul-15 06:34N 46°31' W 084°23'0 0.0
2014-Jul-15 05:34N 46°31' W 084°23'0 0.0
2014-Jul-15 04:30N 46°31' W 084°23'0 0.0
2014-Jul-15 03:24N 46°31' W 084°23'0 0.0
2014-Jul-15 02:34N 46°31' W 084°23'0 0.0
2014-Jul-15 01:28N 46°31' W 084°23'0 0.0
2014-Jul-15 00:33N 46°31' W 084°23'  

Dump ship's entire track history